createdAt,value
2019-04-22T00:00:42.485Z,5.50
2019-04-22T00:01:20.637Z,5.40
2019-04-22T00:01:56.964Z,5.40
2019-04-22T00:02:26.477Z,5.40
2019-04-22T00:03:05.437Z,5.40
2019-04-22T00:03:43.461Z,5.40
2019-04-22T00:04:15.964Z,5.30
2019-04-22T00:04:58.956Z,5.30
2019-04-22T00:05:44.380Z,5.30
2019-04-22T00:06:17.755Z,5.30
2019-04-22T00:06:59.065Z,5.30
2019-04-22T00:07:40.293Z,5.30
2019-04-22T00:08:09.101Z,5.20
2019-04-22T00:08:46.304Z,5.20
2019-04-22T00:09:26.235Z,5.20
2019-04-22T00:10:03.089Z,5.20
2019-04-22T00:10:33.181Z,5.20
2019-04-22T00:11:13.186Z,5.20
2019-04-22T00:11:48.662Z,5.20
2019-04-22T00:12:20.418Z,5.20
2019-04-22T00:12:52.972Z,5.20
2019-04-22T00:13:35.350Z,5.20
2019-04-22T00:14:00.738Z,5.20
2019-04-22T00:14:35.112Z,5.20
2019-04-22T00:15:09.774Z,5.20
2019-04-22T00:15:43.829Z,5.20
2019-04-22T00:16:27.567Z,5.20
2019-04-22T00:16:58.554Z,5.10
2019-04-22T00:17:38.542Z,5.10
2019-04-22T00:18:13.335Z,5.10
2019-04-22T00:18:59.106Z,5.10
2019-04-22T00:19:35.984Z,5.10
2019-04-22T00:19:57.686Z,5.10
2019-04-22T00:20:30.673Z,5.10
2019-04-22T00:21:04.855Z,5.10
2019-04-22T00:21:41.431Z,5.10
2019-04-22T00:22:22.143Z,5.00
2019-04-22T00:22:47.894Z,5.00
2019-04-22T00:23:24.687Z,5.00
2019-04-22T00:23:59.126Z,5.00
2019-04-22T00:24:31.368Z,5.00
2019-04-22T00:25:14.508Z,5.00
2019-04-22T00:25:48.226Z,4.90
2019-04-22T00:26:23.692Z,4.90
2019-04-22T00:26:57.147Z,4.90
2019-04-22T00:27:33.870Z,4.90
2019-04-22T00:28:08.622Z,4.90
2019-04-22T00:28:44.051Z,4.90
2019-04-22T00:29:37.330Z,4.80
2019-04-22T00:29:59.372Z,4.80
2019-04-22T00:30:20.684Z,4.80
2019-04-22T00:31:03.139Z,4.80
2019-04-22T00:31:40.737Z,4.80
2019-04-22T00:32:25.274Z,4.70
2019-04-22T00:33:03.194Z,4.70
2019-04-22T00:33:38.868Z,4.70
2019-04-22T00:34:14.388Z,4.70
2019-04-22T00:34:51.320Z,4.70
2019-04-22T00:35:25.616Z,4.70
2019-04-22T00:36:02.789Z,4.60
2019-04-22T00:36:38.034Z,4.60
2019-04-22T00:37:11.007Z,4.60
2019-04-22T00:37:53.686Z,4.60
2019-04-22T00:38:24.008Z,4.60
2019-04-22T00:38:59.091Z,4.50
2019-04-22T00:39:35.915Z,4.60
2019-04-22T00:40:07.308Z,4.50
2019-04-22T00:40:44.617Z,4.50
2019-04-22T00:41:23.346Z,4.50
2019-04-22T00:41:57.046Z,4.50
2019-04-22T00:42:27.480Z,4.50
2019-04-22T00:43:10.061Z,4.50
2019-04-22T00:43:39.488Z,4.50
2019-04-22T00:44:19.051Z,4.50
2019-04-22T00:44:57.848Z,4.50
2019-04-22T00:45:27.034Z,4.50
2019-04-22T00:45:56.246Z,4.50
2019-04-22T00:46:43.207Z,4.40
2019-04-22T00:47:16.374Z,4.40
2019-04-22T00:47:43.575Z,4.50
2019-04-22T00:48:27.795Z,4.50
2019-04-22T00:49:47.997Z,4.40
2019-04-22T00:50:06.683Z,4.40
2019-04-22T00:51:01.685Z,4.40
2019-04-22T00:51:36.592Z,4.40
2019-04-22T00:52:01.198Z,4.40
2019-04-22T00:52:28.509Z,4.40
2019-04-22T00:53:03.945Z,4.40
2019-04-22T00:53:36.050Z,4.40
2019-04-22T00:54:10.679Z,4.40
2019-04-22T00:54:53.115Z,4.40
2019-04-22T00:56:00.739Z,4.40
2019-04-22T00:56:35.735Z,4.40
2019-04-22T00:57:19.984Z,4.40
2019-04-22T00:57:47.463Z,4.40
2019-04-22T00:58:24.640Z,4.40
2019-04-22T00:58:50.232Z,4.40
2019-04-22T00:59:29.792Z,4.40
2019-04-22T01:00:11.883Z,4.40
2019-04-22T01:00:44.435Z,4.40
2019-04-22T01:01:31.917Z,4.40
2019-04-22T01:01:53.990Z,4.40
2019-04-22T01:03:19.684Z,4.40
2019-04-22T01:03:46.230Z,4.40
2019-04-22T01:04:19.963Z,4.40
2019-04-22T01:05:00.751Z,4.40
2019-04-22T01:05:32.924Z,4.40
2019-04-22T01:05:56.853Z,4.40
2019-04-22T01:06:35.395Z,4.40
2019-04-22T01:07:11.536Z,4.40
2019-04-22T01:07:46.429Z,4.40
2019-04-22T01:08:25.394Z,4.40
2019-04-22T01:08:57.814Z,4.40
2019-04-22T01:09:32.611Z,4.40
2019-04-22T01:10:12.860Z,4.40
2019-04-22T01:10:48.008Z,4.40
2019-04-22T01:11:25.152Z,4.40
2019-04-22T01:11:53.675Z,4.40
2019-04-22T01:12:28.469Z,4.40
2019-04-22T01:13:08.152Z,4.40
2019-04-22T01:13:38.628Z,4.40
2019-04-22T01:14:13.089Z,4.40
2019-04-22T01:14:47.763Z,4.40
2019-04-22T01:15:27.602Z,4.40
2019-04-22T01:16:01.204Z,4.40
2019-04-22T01:16:48.893Z,4.40
2019-04-22T01:17:09.603Z,4.40
2019-04-22T01:17:49.489Z,4.40
2019-04-22T01:18:15.729Z,4.40
2019-04-22T01:18:55.541Z,4.40
2019-04-22T01:19:36.683Z,4.40
2019-04-22T01:20:16.278Z,4.40
2019-04-22T01:21:24.362Z,4.40
2019-04-22T01:21:45.082Z,4.40
2019-04-22T01:22:20.725Z,4.40
2019-04-22T01:23:00.514Z,4.40
2019-04-22T01:23:29.643Z,4.40
2019-04-22T01:24:05.861Z,4.40
2019-04-22T01:24:40.767Z,4.40
2019-04-22T01:25:15.974Z,4.40
2019-04-22T01:25:46.282Z,4.40
2019-04-22T01:26:25.527Z,4.40
2019-04-22T01:26:57.880Z,4.40
2019-04-22T01:27:30.967Z,4.40
2019-04-22T01:28:06.429Z,4.40
2019-04-22T01:28:39.248Z,4.40
2019-04-22T01:29:14.702Z,4.40
2019-04-22T01:29:48.957Z,4.40
2019-04-22T01:30:24.201Z,4.40
2019-04-22T01:30:55.693Z,4.40
2019-04-22T01:31:27.487Z,4.40
2019-04-22T01:31:58.204Z,4.50
2019-04-22T01:32:39.406Z,4.50
2019-04-22T01:33:16.306Z,4.40
2019-04-22T01:33:48.314Z,4.50
2019-04-22T01:34:33.121Z,4.50
2019-04-22T01:35:05.932Z,4.50
2019-04-22T01:35:38.595Z,4.60
2019-04-22T01:36:24.640Z,4.50
2019-04-22T01:36:57.669Z,4.60
2019-04-22T01:37:28.855Z,4.60
2019-04-22T01:38:04.271Z,4.60
2019-04-22T01:38:45.654Z,4.60
2019-04-22T01:39:25.836Z,4.60
2019-04-22T01:40:08.452Z,4.60
2019-04-22T01:40:38.508Z,4.70
2019-04-22T01:41:20.191Z,4.70
2019-04-22T01:41:48.892Z,4.70
2019-04-22T01:42:22.205Z,4.70
2019-04-22T01:43:03.807Z,4.80
2019-04-22T01:43:35.044Z,4.80
2019-04-22T01:44:16.442Z,4.80
2019-04-22T01:44:40.342Z,4.80
2019-04-22T01:45:13.900Z,4.90
2019-04-22T01:45:53.301Z,4.80
2019-04-22T01:46:25.898Z,4.90
2019-04-22T01:46:58.457Z,4.90
2019-04-22T01:47:36.495Z,4.90
2019-04-22T01:48:10.367Z,4.90
2019-04-22T01:48:52.452Z,5.00
2019-04-22T01:49:25.746Z,5.00
2019-04-22T01:49:57.950Z,5.00
2019-04-22T01:50:31.802Z,5.00
2019-04-22T01:51:01.393Z,5.00
2019-04-22T01:51:54.636Z,5.10
2019-04-22T01:52:15.787Z,5.00
2019-04-22T01:53:01.982Z,5.10
2019-04-22T01:53:31.369Z,5.10
2019-04-22T01:54:05.569Z,5.10
2019-04-22T01:54:40.031Z,5.10
2019-04-22T01:55:17.482Z,5.10
2019-04-22T01:56:24.518Z,5.10
2019-04-22T01:56:57.135Z,5.20
2019-04-22T01:57:28.500Z,5.20
2019-04-22T01:58:08.560Z,5.20
2019-04-22T01:58:42.279Z,5.20
2019-04-22T01:59:12.507Z,5.20
2019-04-22T01:59:45.699Z,5.30
2019-04-22T02:00:25.462Z,5.30
2019-04-22T02:01:09.716Z,5.30
2019-04-22T02:01:48.448Z,5.30
2019-04-22T02:02:16.205Z,5.30
2019-04-22T02:02:53.231Z,5.30
2019-04-22T02:03:28.993Z,5.30
2019-04-22T02:04:01.526Z,5.30
2019-04-22T02:04:39.287Z,5.40
2019-04-22T02:05:14.608Z,5.40
2019-04-22T02:05:44.210Z,5.40
2019-04-22T02:06:21.895Z,5.40
2019-04-22T02:06:59.467Z,5.40
2019-04-22T02:07:32.128Z,5.40
2019-04-22T02:08:09.670Z,5.40
2019-04-22T02:08:44.679Z,5.50
2019-04-22T02:09:52.928Z,5.50
2019-04-22T02:10:30.123Z,5.50
2019-04-22T02:11:00.764Z,5.50
2019-04-22T02:11:42.678Z,5.50
2019-04-22T02:12:17.292Z,5.50
2019-04-22T02:12:48.550Z,5.50
2019-04-22T02:13:23.724Z,5.50
2019-04-22T02:13:59.174Z,5.60
2019-04-22T02:14:33.100Z,5.50
2019-04-22T02:15:06.334Z,5.60
2019-04-22T02:15:45.905Z,5.60
2019-04-22T02:16:14.219Z,5.60
2019-04-22T02:16:56.977Z,5.60
2019-04-22T02:17:31.605Z,5.60
2019-04-22T02:18:01.331Z,5.60
2019-04-22T02:18:39.392Z,5.60
2019-04-22T02:19:19.023Z,5.60
2019-04-22T02:19:53.232Z,5.60
2019-04-22T02:20:26.777Z,5.70
2019-04-22T02:20:59.627Z,5.70
2019-04-22T02:21:30.176Z,5.70
2019-04-22T02:22:07.073Z,5.70
2019-04-22T02:23:18.985Z,5.70
2019-04-22T02:24:10.790Z,5.70
2019-04-22T02:24:59.160Z,5.70
2019-04-22T02:25:28.487Z,5.70
2019-04-22T02:26:12.660Z,5.70
2019-04-22T02:26:40.273Z,5.80
2019-04-22T02:27:19.716Z,5.80
2019-04-22T02:27:56.521Z,5.80
2019-04-22T02:29:01.556Z,5.80
2019-04-22T02:30:05.389Z,5.80
2019-04-22T02:31:01.936Z,5.80
2019-04-22T02:31:38.076Z,5.80
2019-04-22T02:33:08.187Z,5.90
2019-04-22T02:33:25.222Z,5.90
2019-04-22T02:34:29.718Z,5.90
2019-04-22T02:35:07.576Z,5.90
2019-04-22T02:35:48.608Z,5.90
2019-04-22T02:37:46.264Z,6.00
2019-04-22T02:38:46.630Z,6.00
2019-04-22T02:39:07.926Z,6.00
2019-04-22T02:40:19.504Z,6.00
2019-04-22T02:41:08.757Z,6.00
2019-04-22T02:41:54.757Z,6.00
2019-04-22T02:42:29.616Z,6.00
2019-04-22T02:43:19.240Z,6.00
2019-04-22T02:45:42.179Z,6.10
2019-04-22T02:47:15.671Z,6.10
2019-04-22T02:47:51.970Z,6.10
2019-04-22T02:49:37.848Z,6.10
2019-04-22T02:50:10.657Z,6.10
2019-04-22T02:50:43.923Z,6.10
2019-04-22T02:52:33.274Z,6.20
2019-04-22T02:53:26.717Z,6.20
2019-04-22T02:54:34.350Z,6.20
2019-04-22T02:54:54.782Z,6.20
2019-04-22T02:55:27.548Z,6.20
2019-04-22T02:56:17.349Z,6.20
2019-04-22T02:56:35.932Z,6.20
2019-04-22T02:57:57.666Z,6.20
2019-04-22T02:58:30.816Z,6.20
2019-04-22T02:59:05.820Z,6.20
2019-04-22T02:59:35.986Z,6.20
2019-04-22T03:00:44.411Z,6.20
2019-04-22T03:01:25.672Z,6.20
2019-04-22T03:02:06.261Z,6.20
2019-04-22T03:02:45.983Z,6.20
2019-04-22T03:03:54.504Z,6.20
2019-04-22T03:04:16.076Z,6.20
2019-04-22T03:04:43.756Z,6.20
2019-04-22T03:05:27.729Z,6.20
2019-04-22T03:06:05.240Z,6.20
2019-04-22T03:07:05.419Z,6.20
2019-04-22T03:07:50.569Z,6.20
2019-04-22T03:09:31.670Z,6.20
2019-04-22T03:10:16.111Z,6.20
2019-04-22T03:10:47.326Z,6.20
2019-04-22T03:11:58.673Z,6.20
2019-04-22T03:13:06.650Z,6.20
2019-04-22T03:13:51.130Z,6.20
2019-04-22T03:14:04.742Z,6.20
2019-04-22T03:14:46.240Z,6.20
2019-04-22T03:15:15.058Z,6.20
2019-04-22T03:16:08.417Z,6.20
2019-04-22T03:17:06.128Z,6.20
2019-04-22T03:17:38.955Z,6.20
2019-04-22T03:18:20.057Z,6.20
2019-04-22T03:18:57.390Z,6.20
2019-04-22T03:20:33.494Z,6.20
2019-04-22T03:21:14.671Z,6.20
2019-04-22T03:21:47.006Z,6.20
2019-04-22T03:23:05.868Z,6.20
2019-04-22T03:25:25.802Z,6.20
2019-04-22T03:27:00.651Z,6.20
2019-04-22T03:28:08.791Z,6.20
2019-04-22T03:28:51.163Z,6.20
2019-04-22T03:29:57.268Z,6.20
2019-04-22T03:31:31.729Z,6.30
2019-04-22T03:33:11.062Z,6.30
2019-04-22T03:34:55.455Z,6.30
2019-04-22T03:35:37.683Z,6.30
2019-04-22T03:36:51.474Z,6.30
2019-04-22T03:37:03.948Z,6.30
2019-04-22T03:38:19.374Z,6.30
2019-04-22T03:39:45.637Z,6.30
2019-04-22T03:41:31.253Z,6.30
2019-04-22T03:43:03.887Z,6.30
2019-04-22T03:43:42.514Z,6.30
2019-04-22T03:44:32.017Z,6.30
2019-04-22T03:45:46.444Z,6.40
2019-04-22T03:46:31.664Z,6.40
2019-04-22T03:47:52.827Z,6.40
2019-04-22T03:48:16.009Z,6.40
2019-04-22T03:49:02.000Z,6.40
2019-04-22T03:49:51.956Z,6.40
2019-04-22T03:50:17.420Z,6.40
2019-04-22T03:51:27.611Z,6.40
2019-04-22T03:52:00.335Z,6.40
2019-04-22T03:53:03.686Z,6.40
2019-04-22T03:53:33.069Z,6.40
2019-04-22T03:54:25.624Z,6.40
2019-04-22T03:55:52.254Z,6.40
2019-04-22T03:57:33.936Z,6.50
2019-04-22T03:58:11.062Z,6.50
2019-04-22T03:58:58.745Z,6.50
2019-04-22T03:59:39.941Z,6.50
2019-04-22T04:00:15.568Z,6.50
2019-04-22T04:01:21.750Z,6.50
2019-04-22T04:01:52.980Z,6.50
2019-04-22T04:02:30.114Z,6.50
2019-04-22T04:03:04.630Z,6.50
2019-04-22T04:03:36.335Z,6.50
2019-04-22T04:04:09.676Z,6.50
2019-04-22T04:05:33.609Z,6.60
2019-04-22T04:05:54.214Z,6.60
2019-04-22T04:06:41.564Z,6.50
2019-04-22T04:08:55.470Z,6.60
2019-04-22T04:09:24.046Z,6.60
2019-04-22T04:10:10.330Z,6.60
2019-04-22T04:11:20.550Z,6.60
2019-04-22T04:13:00.508Z,6.60
2019-04-22T04:13:24.801Z,6.60
2019-04-22T04:14:13.860Z,6.70
2019-04-22T04:14:47.167Z,6.70
2019-04-22T04:15:41.022Z,6.70
2019-04-22T04:16:29.926Z,6.70
2019-04-22T04:17:29.388Z,6.70
2019-04-22T04:17:40.730Z,6.70
2019-04-22T04:18:13.295Z,6.70
2019-04-22T04:18:58.142Z,6.70
2019-04-22T04:19:31.364Z,6.70
2019-04-22T04:20:07.469Z,6.70
2019-04-22T04:20:36.431Z,6.70
2019-04-22T04:22:59.035Z,6.80
2019-04-22T04:23:50.529Z,6.80
2019-04-22T04:24:16.066Z,6.80
2019-04-22T04:25:35.516Z,6.80
2019-04-22T04:25:48.257Z,6.80
2019-04-22T04:26:26.436Z,6.80
2019-04-22T04:27:15.289Z,6.80
2019-04-22T04:28:50.305Z,6.80
2019-04-22T04:29:36.177Z,6.90
2019-04-22T04:30:05.190Z,6.90
2019-04-22T04:30:29.609Z,6.90
2019-04-22T04:31:04.705Z,6.90
2019-04-22T04:32:26.899Z,6.90
2019-04-22T04:33:23.296Z,6.90
2019-04-22T04:35:07.684Z,6.90
2019-04-22T04:35:50.202Z,7.00
2019-04-22T04:36:23.155Z,7.00
2019-04-22T04:37:25.338Z,7.00
2019-04-22T04:37:42.573Z,7.00
2019-04-22T04:38:19.085Z,7.00
2019-04-22T04:38:51.905Z,7.00
2019-04-22T04:39:53.474Z,7.00
2019-04-22T04:40:26.855Z,7.00
2019-04-22T04:40:57.852Z,7.00
2019-04-22T04:42:27.308Z,7.00
2019-04-22T04:42:47.853Z,7.00
2019-04-22T04:43:16.305Z,7.10
2019-04-22T04:44:11.219Z,7.10
2019-04-22T04:44:59.360Z,7.10
2019-04-22T04:47:39.028Z,7.10
2019-04-22T04:47:57.944Z,7.10
2019-04-22T04:48:42.858Z,7.20
2019-04-22T04:49:23.985Z,7.20
2019-04-22T04:51:11.835Z,7.20
2019-04-22T04:51:33.636Z,7.20
2019-04-22T04:52:06.706Z,7.20
2019-04-22T04:53:58.222Z,7.20
2019-04-22T04:54:30.527Z,7.20
2019-04-22T04:55:09.718Z,7.20
2019-04-22T04:55:36.163Z,7.20
2019-04-22T04:56:29.664Z,7.20
2019-04-22T04:56:44.546Z,7.30
2019-04-22T04:57:31.180Z,7.20
2019-04-22T04:58:10.013Z,7.30
2019-04-22T04:58:55.808Z,7.30
2019-04-22T04:59:16.343Z,7.30
2019-04-22T05:00:25.787Z,7.30
2019-04-22T05:02:06.517Z,7.40
2019-04-22T05:03:10.411Z,7.40
2019-04-22T05:03:10.420Z,7.30
2019-04-22T05:03:57.231Z,7.40
2019-04-22T05:04:26.629Z,7.40
2019-04-22T05:05:02.698Z,7.40
2019-04-22T05:06:05.844Z,7.40
2019-04-22T05:07:30.779Z,7.50
2019-04-22T05:08:38.996Z,7.50
2019-04-22T05:09:11.694Z,7.50
2019-04-22T05:09:51.693Z,7.50
2019-04-22T05:11:29.271Z,7.50
2019-04-22T05:12:46.910Z,7.50
2019-04-22T05:13:49.257Z,7.50
2019-04-22T05:14:17.241Z,7.50
2019-04-22T05:15:00.387Z,7.60
2019-04-22T05:15:51.113Z,7.60
2019-04-22T05:16:20.394Z,7.60
2019-04-22T05:16:42.919Z,7.60
2019-04-22T05:17:12.929Z,7.70
2019-04-22T05:17:54.283Z,7.70
2019-04-22T05:18:20.808Z,7.70
2019-04-22T05:19:05.508Z,7.70
2019-04-22T05:19:33.111Z,7.70
2019-04-22T05:20:12.871Z,7.70
2019-04-22T05:20:55.547Z,7.70
2019-04-22T05:21:53.318Z,7.80
2019-04-22T05:22:27.993Z,7.80
2019-04-22T05:23:01.035Z,7.80
2019-04-22T05:23:37.444Z,7.80
2019-04-22T05:24:19.418Z,7.90
2019-04-22T05:24:42.573Z,7.90
2019-04-22T05:25:25.245Z,7.90
2019-04-22T05:25:57.647Z,7.90
2019-04-22T05:26:32.544Z,7.90
2019-04-22T05:27:13.337Z,7.90
2019-04-22T05:27:41.185Z,8.00
2019-04-22T05:28:18.876Z,8.00
2019-04-22T05:28:49.917Z,8.00
2019-04-22T05:29:35.082Z,8.00
2019-04-22T05:30:21.511Z,8.00
2019-04-22T05:30:35.384Z,8.10
2019-04-22T05:31:15.418Z,8.10
2019-04-22T05:31:52.147Z,8.10
2019-04-22T05:32:24.430Z,8.20
2019-04-22T05:32:54.166Z,8.20
2019-04-22T05:33:30.331Z,8.20
2019-04-22T05:34:09.660Z,8.20
2019-04-22T05:34:40.218Z,8.20
2019-04-22T05:35:16.465Z,8.30
2019-04-22T05:35:56.349Z,8.30
2019-04-22T05:36:29.773Z,8.30
2019-04-22T05:37:01.147Z,8.30
2019-04-22T05:37:38.416Z,8.40
2019-04-22T05:38:17.264Z,8.40
2019-04-22T05:38:47.668Z,8.40
2019-04-22T05:39:17.277Z,8.40
2019-04-22T05:39:56.342Z,8.40
2019-04-22T05:40:29.316Z,8.40
2019-04-22T05:41:14.264Z,8.50
2019-04-22T05:41:43.167Z,8.50
2019-04-22T05:42:21.763Z,8.50
2019-04-22T05:42:49.427Z,8.50
2019-04-22T05:43:30.992Z,8.50
2019-04-22T05:44:04.973Z,8.50
2019-04-22T05:44:47.743Z,8.60
2019-04-22T05:45:15.826Z,8.60
2019-04-22T05:45:49.450Z,8.60
2019-04-22T05:46:22.441Z,8.60
2019-04-22T05:46:54.460Z,8.60
2019-04-22T05:47:32.009Z,8.60
2019-04-22T05:48:29.554Z,8.70
2019-04-22T05:48:43.923Z,8.70
2019-04-22T05:49:23.532Z,8.70
2019-04-22T05:49:48.322Z,8.80
2019-04-22T05:50:23.979Z,8.70
2019-04-22T05:51:02.402Z,8.80
2019-04-22T05:52:14.554Z,8.80
2019-04-22T05:52:55.251Z,8.80
2019-04-22T05:53:27.677Z,8.80
2019-04-22T05:54:08.644Z,8.90
2019-04-22T05:54:41.106Z,8.90
2019-04-22T05:55:16.142Z,8.90
2019-04-22T05:55:55.499Z,8.90
2019-04-22T05:56:33.886Z,8.90
2019-04-22T05:57:06.569Z,8.90
2019-04-22T05:57:33.035Z,9.00
2019-04-22T05:58:15.188Z,9.00
2019-04-22T05:58:53.614Z,9.00
2019-04-22T05:59:24.367Z,9.00
2019-04-22T06:00:01.611Z,9.00
2019-04-22T06:02:33.350Z,9.10
2019-04-22T06:02:56.661Z,9.10
2019-04-22T06:03:32.159Z,9.10
2019-04-22T06:04:44.902Z,9.10
2019-04-22T06:05:17.180Z,9.10
2019-04-22T06:05:47.639Z,9.10
2019-04-22T06:06:23.825Z,9.10
2019-04-22T06:07:04.309Z,9.10
2019-04-22T06:07:40.312Z,9.10
2019-04-22T06:08:11.873Z,9.10
2019-04-22T06:08:51.281Z,9.20
2019-04-22T06:09:24.586Z,9.20
2019-04-22T06:10:06.603Z,9.20
2019-04-22T06:11:16.887Z,9.20
2019-04-22T06:11:36.219Z,9.20
2019-04-22T06:12:19.341Z,9.20
2019-04-22T06:12:58.196Z,9.30
2019-04-22T06:13:27.627Z,9.30
2019-04-22T06:14:12.374Z,9.30
2019-04-22T06:14:50.647Z,9.30
2019-04-22T06:15:18.385Z,9.40
2019-04-22T06:15:58.707Z,9.40
2019-04-22T06:16:41.266Z,9.40
2019-04-22T06:17:11.100Z,9.40
2019-04-22T06:17:53.072Z,9.40
2019-04-22T06:18:56.895Z,9.50
2019-04-22T06:19:31.333Z,9.50
2019-04-22T06:20:03.871Z,9.60
2019-04-22T06:20:45.508Z,9.60
2019-04-22T06:21:18.688Z,9.60
2019-04-22T06:21:48.688Z,9.60
2019-04-22T06:22:37.655Z,9.70
2019-04-22T06:23:04.534Z,9.70
2019-04-22T06:23:40.275Z,9.70
2019-04-22T06:24:16.725Z,9.70
2019-04-22T06:24:49.138Z,9.70
2019-04-22T06:25:27.600Z,9.80
2019-04-22T06:26:46.197Z,9.80
2019-04-22T06:27:16.002Z,9.80
2019-04-22T06:27:52.413Z,9.80
2019-04-22T06:28:31.968Z,9.80
2019-04-22T06:28:54.862Z,9.90
2019-04-22T06:29:31.985Z,9.90
2019-04-22T06:30:04.274Z,9.90
2019-04-22T06:30:46.644Z,9.90
2019-04-22T06:31:23.032Z,9.90
2019-04-22T06:32:11.766Z,10.00
2019-04-22T06:33:04.124Z,10.00
2019-04-22T06:33:34.757Z,10.00
2019-04-22T06:34:42.226Z,10.10
2019-04-22T06:35:37.932Z,10.10
2019-04-22T06:35:56.387Z,10.10
2019-04-22T06:36:33.488Z,10.10
2019-04-22T06:37:07.637Z,10.10
2019-04-22T06:37:43.426Z,10.20
2019-04-22T06:38:46.222Z,10.20
2019-04-22T06:39:28.217Z,10.20
2019-04-22T06:39:58.855Z,10.20
2019-04-22T06:41:16.467Z,10.20
2019-04-22T06:41:56.641Z,10.20
2019-04-22T06:42:26.624Z,10.20
2019-04-22T06:43:01.092Z,10.30
2019-04-22T06:44:16.223Z,10.30
2019-04-22T06:44:50.013Z,10.30
2019-04-22T06:45:20.045Z,10.30
2019-04-22T06:45:44.958Z,10.30
2019-04-22T06:46:29.909Z,10.30
2019-04-22T06:47:00.594Z,10.30
2019-04-22T06:48:24.052Z,10.30
2019-04-22T06:48:46.020Z,10.30
2019-04-22T06:49:23.898Z,10.30
2019-04-22T06:49:55.472Z,10.30
2019-04-22T06:50:39.904Z,10.30
2019-04-22T06:51:09.521Z,10.30
2019-04-22T06:51:46.532Z,10.30
2019-04-22T06:52:18.281Z,10.40
2019-04-22T06:52:54.571Z,10.40
2019-04-22T06:53:30.133Z,10.40
2019-04-22T06:54:03.036Z,10.40
2019-04-22T06:54:41.601Z,10.30
2019-04-22T06:55:15.170Z,10.40
2019-04-22T06:55:46.569Z,10.40
2019-04-22T06:56:22.361Z,10.40
2019-04-22T06:57:02.096Z,10.40
2019-04-22T06:57:30.910Z,10.40
2019-04-22T06:58:10.680Z,10.40
2019-04-22T06:58:50.619Z,10.40
2019-04-22T06:59:18.430Z,10.40
2019-04-22T07:00:13.618Z,10.50
2019-04-22T07:00:30.553Z,10.50
2019-04-22T07:01:09.746Z,10.50
2019-04-22T07:01:43.244Z,10.50
2019-04-22T07:02:20.599Z,10.50
2019-04-22T07:03:10.734Z,10.50
2019-04-22T07:03:57.029Z,10.50
2019-04-22T07:04:33.763Z,10.50
2019-04-22T07:05:27.485Z,10.50
2019-04-22T07:05:48.910Z,10.50
2019-04-22T07:06:26.492Z,10.50
2019-04-22T07:07:31.185Z,10.50
2019-04-22T07:08:16.287Z,10.50
2019-04-22T07:09:10.924Z,10.50
2019-04-22T07:09:36.920Z,10.50
2019-04-22T07:10:04.022Z,10.50
2019-04-22T07:10:58.281Z,10.50
2019-04-22T07:11:36.046Z,10.50
2019-04-22T07:12:11.561Z,10.50
2019-04-22T07:12:48.736Z,10.50
2019-04-22T07:13:23.559Z,10.50
2019-04-22T07:14:01.891Z,10.60
2019-04-22T07:14:32.074Z,10.60
2019-04-22T07:15:12.013Z,10.60
2019-04-22T07:15:50.352Z,10.60
2019-04-22T07:16:18.597Z,10.60
2019-04-22T07:16:51.316Z,10.60
2019-04-22T07:17:31.053Z,10.60
2019-04-22T07:18:04.822Z,10.70
2019-04-22T07:18:37.281Z,10.60
2019-04-22T07:19:15.149Z,10.70
2019-04-22T07:19:47.191Z,10.70
2019-04-22T07:20:23.727Z,10.70
2019-04-22T07:21:30.525Z,10.80
2019-04-22T07:22:11.209Z,10.70
2019-04-22T07:22:39.966Z,10.70
2019-04-22T07:23:24.791Z,10.80
2019-04-22T07:24:02.481Z,10.80
2019-04-22T07:25:06.192Z,10.80
2019-04-22T07:25:41.089Z,10.80
2019-04-22T07:26:53.007Z,10.80
2019-04-22T07:27:20.611Z,10.80
2019-04-22T07:27:58.561Z,10.80
2019-04-22T07:28:30.904Z,10.80
2019-04-22T07:29:07.517Z,10.80
2019-04-22T07:29:46.780Z,10.80
2019-04-22T07:30:22.235Z,10.90
2019-04-22T07:31:02.404Z,10.90
2019-04-22T07:31:28.527Z,10.90
2019-04-22T07:32:25.270Z,10.90
2019-04-22T07:33:02.400Z,10.90
2019-04-22T07:33:34.826Z,10.90
2019-04-22T07:34:27.859Z,10.90
2019-04-22T07:35:01.454Z,10.90
2019-04-22T07:36:56.586Z,11.00
2019-04-22T07:37:28.198Z,11.00
2019-04-22T07:37:55.589Z,11.00
2019-04-22T07:38:26.625Z,11.00
2019-04-22T07:39:05.728Z,11.00
2019-04-22T07:39:44.243Z,11.00
2019-04-22T07:40:18.327Z,11.10
2019-04-22T07:40:59.432Z,11.10
2019-04-22T07:41:28.054Z,11.10
2019-04-22T07:41:59.183Z,11.10
2019-04-22T07:42:36.646Z,11.10
2019-04-22T07:43:15.514Z,11.10
2019-04-22T07:44:02.949Z,11.20
2019-04-22T07:44:25.842Z,11.20
2019-04-22T07:45:01.108Z,11.20
2019-04-22T07:46:09.584Z,11.20
2019-04-22T07:46:54.681Z,11.20
2019-04-22T07:47:56.724Z,11.30
2019-04-22T07:48:33.468Z,11.30
2019-04-22T07:49:05.241Z,11.30
2019-04-22T07:49:39.496Z,11.30
2019-04-22T07:50:25.407Z,11.30
2019-04-22T07:51:21.570Z,11.30
2019-04-22T07:52:01.432Z,11.40
2019-04-22T07:52:35.235Z,11.40
2019-04-22T07:53:05.458Z,11.40
2019-04-22T07:53:39.434Z,11.40
2019-04-22T07:54:39.711Z,11.40
2019-04-22T07:54:53.055Z,11.40
2019-04-22T07:55:27.320Z,11.40
2019-04-22T07:56:06.738Z,11.40
2019-04-22T07:56:36.526Z,11.50
2019-04-22T07:57:25.453Z,11.50
2019-04-22T07:58:05.245Z,11.50
2019-04-22T07:58:26.136Z,11.60
2019-04-22T07:58:58.325Z,11.60
2019-04-22T07:59:35.229Z,11.60
2019-04-22T08:00:15.926Z,11.60
2019-04-22T08:00:52.747Z,11.70
2019-04-22T08:01:20.362Z,11.70
2019-04-22T08:01:55.921Z,11.80
2019-04-22T08:02:51.706Z,11.80
2019-04-22T08:03:12.152Z,11.80
2019-04-22T08:03:51.667Z,11.80
2019-04-22T08:04:22.899Z,11.80
2019-04-22T08:06:36.210Z,11.90
2019-04-22T08:07:16.121Z,12.00
2019-04-22T08:07:50.550Z,12.00
2019-04-22T08:08:26.039Z,12.10
2019-04-22T08:09:00.388Z,12.00
2019-04-22T08:09:35.634Z,12.10
2019-04-22T08:10:18.912Z,12.10
2019-04-22T08:10:48.474Z,12.10
2019-04-22T08:11:52.476Z,12.20
2019-04-22T08:12:36.243Z,12.20
2019-04-22T08:13:05.734Z,12.20
2019-04-22T08:13:38.804Z,12.30
2019-04-22T08:14:14.651Z,12.30
2019-04-22T08:14:45.629Z,12.30
2019-04-22T08:15:27.394Z,12.30
2019-04-22T08:15:58.145Z,12.30
2019-04-22T08:16:33.496Z,12.40
2019-04-22T08:17:32.423Z,12.40
2019-04-22T08:18:17.481Z,12.40
2019-04-22T08:19:00.736Z,12.40
2019-04-22T08:19:28.733Z,12.50
2019-04-22T08:20:44.074Z,12.50
2019-04-22T08:21:12.389Z,12.50
2019-04-22T08:21:52.161Z,12.60
2019-04-22T08:22:23.364Z,12.60
2019-04-22T08:23:05.963Z,12.60
2019-04-22T08:23:35.481Z,12.60
2019-04-22T08:24:06.380Z,12.70
2019-04-22T08:25:16.489Z,12.70
2019-04-22T08:25:58.014Z,12.80
2019-04-22T08:26:33.527Z,12.80
2019-04-22T08:27:08.685Z,12.90
2019-04-22T08:27:39.526Z,12.90
2019-04-22T08:28:17.800Z,12.90
2019-04-22T08:28:53.295Z,13.00
2019-04-22T08:29:30.070Z,13.00
2019-04-22T08:30:11.902Z,13.00
2019-04-22T08:31:14.870Z,13.10
2019-04-22T08:31:51.932Z,13.20
2019-04-22T08:32:22.027Z,13.20
2019-04-22T08:32:53.105Z,13.20
2019-04-22T08:34:08.220Z,13.20
2019-04-22T08:34:40.827Z,13.20
2019-04-22T08:35:20.951Z,13.30
2019-04-22T08:36:28.180Z,13.30
2019-04-22T08:37:47.918Z,13.40
2019-04-22T08:38:14.989Z,13.40
2019-04-22T08:38:53.959Z,13.40
2019-04-22T08:40:01.944Z,13.40
2019-04-22T08:40:40.464Z,13.40
2019-04-22T08:41:16.395Z,13.50
2019-04-22T08:41:41.492Z,13.50
2019-04-22T08:42:31.816Z,13.50
2019-04-22T08:43:37.793Z,13.60
2019-04-22T08:44:07.641Z,13.60
2019-04-22T08:45:25.318Z,13.60
2019-04-22T08:45:51.118Z,13.70
2019-04-22T08:47:36.126Z,13.70
2019-04-22T08:48:07.644Z,13.80
2019-04-22T08:48:59.054Z,13.80
2019-04-22T08:49:29.968Z,13.80
2019-04-22T08:50:03.236Z,13.90
2019-04-22T08:50:33.921Z,13.90
2019-04-22T08:51:19.242Z,13.90
2019-04-22T08:51:42.802Z,13.90
2019-04-22T08:52:21.108Z,14.00
2019-04-22T08:53:14.296Z,14.00
2019-04-22T08:53:35.870Z,14.10
2019-04-22T08:54:11.827Z,14.10
2019-04-22T08:54:44.598Z,14.10
2019-04-22T08:55:17.964Z,14.10
2019-04-22T08:55:59.574Z,14.20
2019-04-22T08:56:32.526Z,14.30
2019-04-22T08:57:03.148Z,14.30
2019-04-22T08:57:58.510Z,14.40
2019-04-22T08:58:20.929Z,14.40
2019-04-22T08:58:50.857Z,14.50
2019-04-22T08:59:19.858Z,14.50
2019-04-22T09:00:37.375Z,14.60
2019-04-22T09:01:14.665Z,14.60
2019-04-22T09:01:38.116Z,14.60
2019-04-22T09:02:20.505Z,14.70
2019-04-22T09:02:54.012Z,14.70
2019-04-22T09:03:27.244Z,14.70
2019-04-22T09:04:02.245Z,14.70
2019-04-22T09:04:38.492Z,14.70
2019-04-22T09:05:22.810Z,14.70
2019-04-22T09:06:00.810Z,14.70
2019-04-22T09:06:39.889Z,14.70
2019-04-22T09:07:31.675Z,14.70
2019-04-22T09:08:15.696Z,14.70
2019-04-22T09:08:50.426Z,14.60
2019-04-22T09:09:22.569Z,14.60
2019-04-22T09:09:55.665Z,14.60
2019-04-22T09:10:30.071Z,14.60
2019-04-22T09:11:16.099Z,14.60
2019-04-22T09:12:23.818Z,14.70
2019-04-22T09:13:30.038Z,14.70
2019-04-22T09:14:06.528Z,14.80